sensor_id;sensor_type;location;lat;lon;timestamp;temperature;humidity
35325;DHT22;35135;47.510;19.036;2022-12-18T00:00:43;19.70;48.60
35325;DHT22;35135;47.510;19.036;2022-12-18T00:03:09;19.70;48.60
35325;DHT22;35135;47.510;19.036;2022-12-18T00:05:34;19.70;48.60
35325;DHT22;35135;47.510;19.036;2022-12-18T00:08:00;19.60;48.60
35325;DHT22;35135;47.510;19.036;2022-12-18T00:10:27;19.70;48.60
35325;DHT22;35135;47.510;19.036;2022-12-18T00:12:53;19.70;48.60
35325;DHT22;35135;47.510;19.036;2022-12-18T00:15:19;19.70;48.60
35325;DHT22;35135;47.510;19.036;2022-12-18T00:17:44;19.60;48.60
35325;DHT22;35135;47.510;19.036;2022-12-18T00:20:10;19.60;48.60
35325;DHT22;35135;47.510;19.036;2022-12-18T00:22:36;19.60;48.60
35325;DHT22;35135;47.510;19.036;2022-12-18T00:25:02;19.60;48.60
35325;DHT22;35135;47.510;19.036;2022-12-18T00:27:27;19.60;48.70
35325;DHT22;35135;47.510;19.036;2022-12-18T00:29:53;19.60;48.60
35325;DHT22;35135;47.510;19.036;2022-12-18T00:32:18;19.60;48.60
35325;DHT22;35135;47.510;19.036;2022-12-18T00:34:44;19.60;48.70
35325;DHT22;35135;47.510;19.036;2022-12-18T00:37:10;19.60;48.70
35325;DHT22;35135;47.510;19.036;2022-12-18T00:39:35;19.60;48.70
35325;DHT22;35135;47.510;19.036;2022-12-18T00:42:01;19.60;48.70
35325;DHT22;35135;47.510;19.036;2022-12-18T00:44:45;19.60;48.70
35325;DHT22;35135;47.510;19.036;2022-12-18T00:47:11;19.60;48.70
35325;DHT22;35135;47.510;19.036;2022-12-18T00:49:36;19.60;48.70
35325;DHT22;35135;47.510;19.036;2022-12-18T00:52:02;19.60;48.60
35325;DHT22;35135;47.510;19.036;2022-12-18T00:54:27;19.50;48.60
35325;DHT22;35135;47.510;19.036;2022-12-18T00:56:53;19.60;48.60
35325;DHT22;35135;47.510;19.036;2022-12-18T00:59:20;19.50;48.70
35325;DHT22;35135;47.510;19.036;2022-12-18T01:01:46;19.50;48.70
35325;DHT22;35135;47.510;19.036;2022-12-18T01:04:12;19.50;48.60
35325;DHT22;35135;47.510;19.036;2022-12-18T01:06:38;19.50;48.70
35325;DHT22;35135;47.510;19.036;2022-12-18T01:09:04;19.50;48.70
35325;DHT22;35135;47.510;19.036;2022-12-18T01:11:30;19.60;48.50
35325;DHT22;35135;47.510;19.036;2022-12-18T01:13:56;19.60;48.40
35325;DHT22;35135;47.510;19.036;2022-12-18T01:16:22;19.80;48.40
35325;DHT22;35135;47.510;19.036;2022-12-18T01:18:51;19.90;48.40
35325;DHT22;35135;47.510;19.036;2022-12-18T01:21:17;19.90;48.10
35325;DHT22;35135;47.510;19.036;2022-12-18T01:23:43;20.00;48.00
35325;DHT22;35135;47.510;19.036;2022-12-18T01:26:12;20.10;47.70
35325;DHT22;35135;47.510;19.036;2022-12-18T01:28:38;20.20;47.60
35325;DHT22;35135;47.510;19.036;2022-12-18T01:31:23;20.20;47.40
35325;DHT22;35135;47.510;19.036;2022-12-18T01:33:50;20.20;47.30
35325;DHT22;35135;47.510;19.036;2022-12-18T01:36:23;20.30;47.20
35325;DHT22;35135;47.510;19.036;2022-12-18T01:38:49;20.20;47.10
35325;DHT22;35135;47.510;19.036;2022-12-18T01:41:18;20.30;47.10
35325;DHT22;35135;47.510;19.036;2022-12-18T01:43:55;20.20;47.10
35325;DHT22;35135;47.510;19.036;2022-12-18T01:46:23;20.20;47.00
35325;DHT22;35135;47.510;19.036;2022-12-18T01:48:52;20.20;47.00
35325;DHT22;35135;47.510;19.036;2022-12-18T01:51:18;20.20;47.10
35325;DHT22;35135;47.510;19.036;2022-12-18T01:53:45;20.10;47.10
35325;DHT22;35135;47.510;19.036;2022-12-18T01:56:19;20.10;47.30
35325;DHT22;35135;47.510;19.036;2022-12-18T02:01:22;20.10;47.30
35325;DHT22;35135;47.510;19.036;2022-12-18T02:03:49;20.00;47.20
35325;DHT22;35135;47.510;19.036;2022-12-18T02:06:39;20.00;46.90
35325;DHT22;35135;47.510;19.036;2022-12-18T02:09:09;20.00;47.00
35325;DHT22;35135;47.510;19.036;2022-12-18T02:14:38;19.90;47.30
35325;DHT22;35135;47.510;19.036;2022-12-18T02:22:50;19.80;47.50
35325;DHT22;35135;47.510;19.036;2022-12-18T02:28:02;19.80;47.50
35325;DHT22;35135;47.510;19.036;2022-12-18T02:30:31;19.80;47.50
35325;DHT22;35135;47.510;19.036;2022-12-18T02:33:00;19.70;47.50
35325;DHT22;35135;47.510;19.036;2022-12-18T02:35:29;19.70;47.60
35325;DHT22;35135;47.510;19.036;2022-12-18T02:37:56;19.70;47.70
35325;DHT22;35135;47.510;19.036;2022-12-18T02:40:24;19.70;47.60
35325;DHT22;35135;47.510;19.036;2022-12-18T02:42:51;19.70;47.70
35325;DHT22;35135;47.510;19.036;2022-12-18T02:45:17;19.60;47.70
35325;DHT22;35135;47.510;19.036;2022-12-18T02:47:46;19.60;47.70
35325;DHT22;35135;47.510;19.036;2022-12-18T02:50:32;19.60;47.70
35325;DHT22;35135;47.510;19.036;2022-12-18T02:58:41;19.60;47.80
35325;DHT22;35135;47.510;19.036;2022-12-18T03:01:16;19.60;47.80
35325;DHT22;35135;47.510;19.036;2022-12-18T03:03:53;19.60;47.80
35325;DHT22;35135;47.510;19.036;2022-12-18T03:06:24;19.60;47.80
35325;DHT22;35135;47.510;19.036;2022-12-18T03:08:56;19.60;47.80
35325;DHT22;35135;47.510;19.036;2022-12-18T03:11:23;19.60;47.80
35325;DHT22;35135;47.510;19.036;2022-12-18T03:14:11;19.60;47.80
35325;DHT22;35135;47.510;19.036;2022-12-18T03:16:40;19.50;47.80
35325;DHT22;35135;47.510;19.036;2022-12-18T03:19:17;19.50;47.80
35325;DHT22;35135;47.510;19.036;2022-12-18T03:21:46;19.50;47.80
35325;DHT22;35135;47.510;19.036;2022-12-18T03:24:14;19.50;47.90
35325;DHT22;35135;47.510;19.036;2022-12-18T03:26:44;19.50;47.90
35325;DHT22;35135;47.510;19.036;2022-12-18T03:31:53;19.50;47.90
35325;DHT22;35135;47.510;19.036;2022-12-18T03:34:24;19.50;47.90
35325;DHT22;35135;47.510;19.036;2022-12-18T03:36:52;19.40;47.80
35325;DHT22;35135;47.510;19.036;2022-12-18T03:39:19;19.50;47.80
35325;DHT22;35135;47.510;19.036;2022-12-18T03:41:51;19.50;47.90
35325;DHT22;35135;47.510;19.036;2022-12-18T03:44:29;19.50;47.90
35325;DHT22;35135;47.510;19.036;2022-12-18T03:47:08;19.40;48.00
35325;DHT22;35135;47.510;19.036;2022-12-18T03:52:18;19.40;47.80
35325;DHT22;35135;47.510;19.036;2022-12-18T03:54:46;19.40;48.50
35325;DHT22;35135;47.510;19.036;2022-12-18T03:57:21;19.40;47.90
35325;DHT22;35135;47.510;19.036;2022-12-18T03:59:51;19.40;47.80
35325;DHT22;35135;47.510;19.036;2022-12-18T04:02:20;19.40;47.70
35325;DHT22;35135;47.510;19.036;2022-12-18T04:04:48;19.40;47.80
35325;DHT22;35135;47.510;19.036;2022-12-18T04:07:16;19.40;47.90
35325;DHT22;35135;47.510;19.036;2022-12-18T04:09:43;19.40;47.90
35325;DHT22;35135;47.510;19.036;2022-12-18T04:12:10;19.40;47.90
35325;DHT22;35135;47.510;19.036;2022-12-18T04:14:36;19.40;48.00
35325;DHT22;35135;47.510;19.036;2022-12-18T04:17:02;19.30;47.70
35325;DHT22;35135;47.510;19.036;2022-12-18T04:19:28;19.40;47.80
35325;DHT22;35135;47.510;19.036;2022-12-18T04:21:54;19.50;47.80
35325;DHT22;35135;47.510;19.036;2022-12-18T04:24:19;19.60;47.70
35325;DHT22;35135;47.510;19.036;2022-12-18T04:26:45;19.70;47.60
35325;DHT22;35135;47.510;19.036;2022-12-18T04:29:11;19.80;47.50
35325;DHT22;35135;47.510;19.036;2022-12-18T04:31:37;19.90;47.30
35325;DHT22;35135;47.510;19.036;2022-12-18T04:34:03;19.90;47.00
35325;DHT22;35135;47.510;19.036;2022-12-18T04:36:29;20.00;46.90
35325;DHT22;35135;47.510;19.036;2022-12-18T04:38:55;20.00;46.70
35325;DHT22;35135;47.510;19.036;2022-12-18T04:41:20;20.10;46.60
35325;DHT22;35135;47.510;19.036;2022-12-18T04:43:46;20.00;46.30
35325;DHT22;35135;47.510;19.036;2022-12-18T04:46:12;20.10;46.50
35325;DHT22;35135;47.510;19.036;2022-12-18T04:48:38;20.00;46.30
35325;DHT22;35135;47.510;19.036;2022-12-18T04:51:05;20.10;46.40
35325;DHT22;35135;47.510;19.036;2022-12-18T04:53:31;20.10;46.50
35325;DHT22;35135;47.510;19.036;2022-12-18T04:56:14;20.00;46.40
35325;DHT22;35135;47.510;19.036;2022-12-18T04:58:41;20.00;46.40
35325;DHT22;35135;47.510;19.036;2022-12-18T05:01:08;20.00;46.50
35325;DHT22;35135;47.510;19.036;2022-12-18T05:03:34;19.90;46.20
35325;DHT22;35135;47.510;19.036;2022-12-18T05:06:00;19.90;46.30
35325;DHT22;35135;47.510;19.036;2022-12-18T05:08:26;19.90;46.50
35325;DHT22;35135;47.510;19.036;2022-12-18T05:11:03;19.90;46.50
35325;DHT22;35135;47.510;19.036;2022-12-18T05:13:30;19.90;46.60
35325;DHT22;35135;47.510;19.036;2022-12-18T05:15:56;19.90;46.60
35325;DHT22;35135;47.510;19.036;2022-12-18T05:18:23;20.00;46.60
35325;DHT22;35135;47.510;19.036;2022-12-18T05:20:50;20.00;46.40
35325;DHT22;35135;47.510;19.036;2022-12-18T05:23:16;20.10;46.40
35325;DHT22;35135;47.510;19.036;2022-12-18T05:25:41;20.20;46.30
35325;DHT22;35135;47.510;19.036;2022-12-18T05:28:07;20.30;46.20
35325;DHT22;35135;47.510;19.036;2022-12-18T05:30:33;20.40;46.00
35325;DHT22;35135;47.510;19.036;2022-12-18T05:32:59;20.40;45.90
35325;DHT22;35135;47.510;19.036;2022-12-18T05:35:24;20.50;45.70
35325;DHT22;35135;47.510;19.036;2022-12-18T05:37:50;20.50;45.60
35325;DHT22;35135;47.510;19.036;2022-12-18T05:40:15;20.50;45.50
35325;DHT22;35135;47.510;19.036;2022-12-18T05:42:41;20.50;45.40
35325;DHT22;35135;47.510;19.036;2022-12-18T05:45:07;20.50;45.20
35325;DHT22;35135;47.510;19.036;2022-12-18T05:47:33;20.50;45.10
35325;DHT22;35135;47.510;19.036;2022-12-18T05:49:58;20.50;45.20
35325;DHT22;35135;47.510;19.036;2022-12-18T05:52:24;20.50;45.20
35325;DHT22;35135;47.510;19.036;2022-12-18T05:54:50;20.50;45.10
35325;DHT22;35135;47.510;19.036;2022-12-18T05:57:15;20.50;45.30
35325;DHT22;35135;47.510;19.036;2022-12-18T05:59:41;20.40;45.20
35325;DHT22;35135;47.510;19.036;2022-12-18T06:02:07;20.40;45.20
35325;DHT22;35135;47.510;19.036;2022-12-18T06:04:32;20.30;45.40
35325;DHT22;35135;47.510;19.036;2022-12-18T06:06:58;20.30;45.60
35325;DHT22;35135;47.510;19.036;2022-12-18T06:09:24;20.30;45.70
35325;DHT22;35135;47.510;19.036;2022-12-18T06:11:51;20.30;45.50
35325;DHT22;35135;47.510;19.036;2022-12-18T06:14:17;20.20;45.80
35325;DHT22;35135;47.510;19.036;2022-12-18T06:16:43;20.20;45.40
35325;DHT22;35135;47.510;19.036;2022-12-18T06:19:14;20.10;45.30
35325;DHT22;35135;47.510;19.036;2022-12-18T06:21:40;20.10;45.30
35325;DHT22;35135;47.510;19.036;2022-12-18T06:24:06;20.00;45.20
35325;DHT22;35135;47.510;19.036;2022-12-18T06:26:32;20.10;45.30
35325;DHT22;35135;47.510;19.036;2022-12-18T06:28:57;20.00;45.60
35325;DHT22;35135;47.510;19.036;2022-12-18T06:31:23;20.00;45.40
35325;DHT22;35135;47.510;19.036;2022-12-18T06:33:49;20.00;45.40
35325;DHT22;35135;47.510;19.036;2022-12-18T06:36:15;19.90;45.60
35325;DHT22;35135;47.510;19.036;2022-12-18T06:38:42;19.90;45.70
35325;DHT22;35135;47.510;19.036;2022-12-18T06:41:17;19.90;45.80
35325;DHT22;35135;47.510;19.036;2022-12-18T06:43:43;19.90;45.90
35325;DHT22;35135;47.510;19.036;2022-12-18T06:46:09;19.90;46.00
35325;DHT22;35135;47.510;19.036;2022-12-18T06:48:35;19.90;45.90
35325;DHT22;35135;47.510;19.036;2022-12-18T06:51:01;19.80;46.00
35325;DHT22;35135;47.510;19.036;2022-12-18T06:53:27;19.80;46.10
35325;DHT22;35135;47.510;19.036;2022-12-18T06:56:00;19.80;46.20
35325;DHT22;35135;47.510;19.036;2022-12-18T06:58:26;19.80;46.30
35325;DHT22;35135;47.510;19.036;2022-12-18T07:00:52;19.70;46.20
35325;DHT22;35135;47.510;19.036;2022-12-18T07:03:17;19.70;46.20
35325;DHT22;35135;47.510;19.036;2022-12-18T07:05:43;19.70;46.20
35325;DHT22;35135;47.510;19.036;2022-12-18T07:08:09;19.70;46.30
35325;DHT22;35135;47.510;19.036;2022-12-18T07:10:41;19.70;46.40
35325;DHT22;35135;47.510;19.036;2022-12-18T07:13:06;19.70;46.60
35325;DHT22;35135;47.510;19.036;2022-12-18T07:15:32;19.60;46.60
35325;DHT22;35135;47.510;19.036;2022-12-18T07:17:58;19.70;46.60
35325;DHT22;35135;47.510;19.036;2022-12-18T07:20:23;19.70;46.40
35325;DHT22;35135;47.510;19.036;2022-12-18T07:22:49;19.60;46.40
35325;DHT22;35135;47.510;19.036;2022-12-18T07:25:14;19.60;46.60
35325;DHT22;35135;47.510;19.036;2022-12-18T07:27:40;19.60;46.80
35325;DHT22;35135;47.510;19.036;2022-12-18T07:30:06;19.60;46.70
35325;DHT22;35135;47.510;19.036;2022-12-18T07:32:32;19.70;46.90
35325;DHT22;35135;47.510;19.036;2022-12-18T07:34:58;19.70;47.00
35325;DHT22;35135;47.510;19.036;2022-12-18T07:37:23;19.70;46.70
35325;DHT22;35135;47.510;19.036;2022-12-18T07:39:49;19.70;46.60
35325;DHT22;35135;47.510;19.036;2022-12-18T07:42:15;19.60;47.20
35325;DHT22;35135;47.510;19.036;2022-12-18T07:44:55;19.60;46.50
35325;DHT22;35135;47.510;19.036;2022-12-18T07:47:21;19.60;46.60
35325;DHT22;35135;47.510;19.036;2022-12-18T07:49:47;19.60;46.50
35325;DHT22;35135;47.510;19.036;2022-12-18T07:52:13;19.60;46.50
35325;DHT22;35135;47.510;19.036;2022-12-18T07:54:39;19.60;46.60
35325;DHT22;35135;47.510;19.036;2022-12-18T07:57:06;19.60;46.60
35325;DHT22;35135;47.510;19.036;2022-12-18T07:59:31;19.60;46.40
35325;DHT22;35135;47.510;19.036;2022-12-18T08:01:57;19.60;46.50
35325;DHT22;35135;47.510;19.036;2022-12-18T08:04:25;19.60;46.40
35325;DHT22;35135;47.510;19.036;2022-12-18T08:06:51;19.60;46.60
35325;DHT22;35135;47.510;19.036;2022-12-18T08:09:16;19.60;46.40
35325;DHT22;35135;47.510;19.036;2022-12-18T08:11:42;19.60;46.40
35325;DHT22;35135;47.510;19.036;2022-12-18T08:14:08;19.60;46.40
35325;DHT22;35135;47.510;19.036;2022-12-18T08:16:34;19.60;46.20
35325;DHT22;35135;47.510;19.036;2022-12-18T08:18:59;19.60;46.20
35325;DHT22;35135;47.510;19.036;2022-12-18T08:21:27;19.60;46.30
35325;DHT22;35135;47.510;19.036;2022-12-18T08:23:55;19.60;46.40
35325;DHT22;35135;47.510;19.036;2022-12-18T08:26:22;19.60;46.40
35325;DHT22;35135;47.510;19.036;2022-12-18T08:28:49;19.60;46.20
35325;DHT22;35135;47.510;19.036;2022-12-18T08:31:15;19.60;46.30
35325;DHT22;35135;47.510;19.036;2022-12-18T08:33:41;19.60;46.20
35325;DHT22;35135;47.510;19.036;2022-12-18T08:36:08;19.60;46.10
35325;DHT22;35135;47.510;19.036;2022-12-18T08:38:34;19.60;46.20
35325;DHT22;35135;47.510;19.036;2022-12-18T08:41:08;19.60;46.20
35325;DHT22;35135;47.510;19.036;2022-12-18T08:43:34;19.60;46.30
35325;DHT22;35135;47.510;19.036;2022-12-18T08:46:19;19.60;46.10
35325;DHT22;35135;47.510;19.036;2022-12-18T08:48:45;19.60;46.20
35325;DHT22;35135;47.510;19.036;2022-12-18T08:51:11;19.60;46.20
35325;DHT22;35135;47.510;19.036;2022-12-18T08:53:37;19.50;46.10
35325;DHT22;35135;47.510;19.036;2022-12-18T08:56:03;19.60;46.30
35325;DHT22;35135;47.510;19.036;2022-12-18T08:58:30;19.60;46.30
35325;DHT22;35135;47.510;19.036;2022-12-18T09:01:00;19.50;46.20
35325;DHT22;35135;47.510;19.036;2022-12-18T09:03:27;19.50;46.20
35325;DHT22;35135;47.510;19.036;2022-12-18T09:05:53;19.50;46.30
35325;DHT22;35135;47.510;19.036;2022-12-18T09:08:18;19.50;46.40
35325;DHT22;35135;47.510;19.036;2022-12-18T09:10:45;19.50;46.40
35325;DHT22;35135;47.510;19.036;2022-12-18T09:13:12;19.50;46.20
35325;DHT22;35135;47.510;19.036;2022-12-18T09:15:46;19.50;46.30
35325;DHT22;35135;47.510;19.036;2022-12-18T09:18:14;19.50;46.20
35325;DHT22;35135;47.510;19.036;2022-12-18T09:20:40;19.50;46.30
35325;DHT22;35135;47.510;19.036;2022-12-18T09:23:06;19.50;46.40
35325;DHT22;35135;47.510;19.036;2022-12-18T09:25:33;19.50;46.50
35325;DHT22;35135;47.510;19.036;2022-12-18T09:28:03;19.50;46.50
35325;DHT22;35135;47.510;19.036;2022-12-18T09:30:29;19.50;46.40
35325;DHT22;35135;47.510;19.036;2022-12-18T09:32:55;19.50;46.50
35325;DHT22;35135;47.510;19.036;2022-12-18T09:35:21;19.50;46.50
35325;DHT22;35135;47.510;19.036;2022-12-18T09:37:47;19.50;46.60
35325;DHT22;35135;47.510;19.036;2022-12-18T09:40:21;19.50;46.50
35325;DHT22;35135;47.510;19.036;2022-12-18T09:42:53;19.50;46.60
35325;DHT22;35135;47.510;19.036;2022-12-18T09:45:21;19.40;46.60
35325;DHT22;35135;47.510;19.036;2022-12-18T09:47:48;19.40;46.60
35325;DHT22;35135;47.510;19.036;2022-12-18T09:50:32;19.40;46.60
35325;DHT22;35135;47.510;19.036;2022-12-18T09:53:06;19.40;46.50
35325;DHT22;35135;47.510;19.036;2022-12-18T09:55:38;19.50;46.60
35325;DHT22;35135;47.510;19.036;2022-12-18T10:00:54;19.50;46.60
35325;DHT22;35135;47.510;19.036;2022-12-18T10:03:20;19.40;46.60
35325;DHT22;35135;47.510;19.036;2022-12-18T10:05:55;19.50;47.30
35325;DHT22;35135;47.510;19.036;2022-12-18T10:13:44;19.30;44.60
35325;DHT22;35135;47.510;19.036;2022-12-18T10:19:38;19.30;45.00
35325;DHT22;35135;47.510;19.036;2022-12-18T10:22:22;19.20;44.80
35325;DHT22;35135;47.510;19.036;2022-12-18T10:25:12;19.20;44.70
35325;DHT22;35135;47.510;19.036;2022-12-18T10:27:40;19.20;44.90
35325;DHT22;35135;47.510;19.036;2022-12-18T10:30:14;19.30;45.20
35325;DHT22;35135;47.510;19.036;2022-12-18T10:32:41;19.30;45.30
35325;DHT22;35135;47.510;19.036;2022-12-18T10:35:36;19.30;45.40
35325;DHT22;35135;47.510;19.036;2022-12-18T10:40:35;19.30;45.60
35325;DHT22;35135;47.510;19.036;2022-12-18T10:43:14;19.30;45.40
35325;DHT22;35135;47.510;19.036;2022-12-18T10:45:41;19.30;45.40
35325;DHT22;35135;47.510;19.036;2022-12-18T10:48:21;19.30;45.50
35325;DHT22;35135;47.510;19.036;2022-12-18T10:50:49;19.30;45.70
35325;DHT22;35135;47.510;19.036;2022-12-18T10:53:50;19.30;45.90
35325;DHT22;35135;47.510;19.036;2022-12-18T10:56:19;19.30;46.20
35325;DHT22;35135;47.510;19.036;2022-12-18T10:58:59;19.30;46.40
35325;DHT22;35135;47.510;19.036;2022-12-18T11:01:25;19.40;46.50
35325;DHT22;35135;47.510;19.036;2022-12-18T11:06:23;19.40;46.60
35325;DHT22;35135;47.510;19.036;2022-12-18T11:09:01;19.40;46.60
35325;DHT22;35135;47.510;19.036;2022-12-18T11:11:28;19.40;46.70
35325;DHT22;35135;47.510;19.036;2022-12-18T11:14:06;19.40;46.70
35325;DHT22;35135;47.510;19.036;2022-12-18T11:16:44;19.40;46.70
35325;DHT22;35135;47.510;19.036;2022-12-18T11:21:51;19.40;46.80
35325;DHT22;35135;47.510;19.036;2022-12-18T11:24:32;19.40;46.90
35325;DHT22;35135;47.510;19.036;2022-12-18T11:27:01;19.40;46.90
35325;DHT22;35135;47.510;19.036;2022-12-18T11:29:38;19.40;46.90
35325;DHT22;35135;47.510;19.036;2022-12-18T11:35:17;19.40;46.80
35325;DHT22;35135;47.510;19.036;2022-12-18T11:37:43;19.40;46.80
35325;DHT22;35135;47.510;19.036;2022-12-18T11:40:17;19.40;46.80
35325;DHT22;35135;47.510;19.036;2022-12-18T11:43:14;19.40;46.80
35325;DHT22;35135;47.510;19.036;2022-12-18T11:45:59;19.40;46.80
35325;DHT22;35135;47.510;19.036;2022-12-18T11:48:32;19.40;46.80
35325;DHT22;35135;47.510;19.036;2022-12-18T11:50:58;19.40;46.80
35325;DHT22;35135;47.510;19.036;2022-12-18T11:53:27;19.40;46.80
35325;DHT22;35135;47.510;19.036;2022-12-18T11:58:58;19.40;46.80
35325;DHT22;35135;47.510;19.036;2022-12-18T12:02:23;19.40;47.30
35325;DHT22;35135;47.510;19.036;2022-12-18T12:39:37;19.50;47.00
35325;DHT22;35135;47.510;19.036;2022-12-18T12:42:05;19.40;47.10
35325;DHT22;35135;47.510;19.036;2022-12-18T12:44:55;19.40;47.20
35325;DHT22;35135;47.510;19.036;2022-12-18T12:47:28;19.50;47.30
35325;DHT22;35135;47.510;19.036;2022-12-18T12:49:57;19.50;47.20
35325;DHT22;35135;47.510;19.036;2022-12-18T12:52:47;19.60;47.20
35325;DHT22;35135;47.510;19.036;2022-12-18T12:55:40;19.70;47.10
35325;DHT22;35135;47.510;19.036;2022-12-18T13:01:06;20.00;46.70
35325;DHT22;35135;47.510;19.036;2022-12-18T13:04:08;20.10;46.50
35325;DHT22;35135;47.510;19.036;2022-12-18T13:06:53;20.20;46.40
35325;DHT22;35135;47.510;19.036;2022-12-18T13:09:21;20.30;46.10
35325;DHT22;35135;47.510;19.036;2022-12-18T13:11:47;20.40;45.90
35325;DHT22;35135;47.510;19.036;2022-12-18T13:14:39;20.40;46.40
35325;DHT22;35135;47.510;19.036;2022-12-18T13:19:43;20.50;45.80
35325;DHT22;35135;47.510;19.036;2022-12-18T13:22:23;20.50;45.70
35325;DHT22;35135;47.510;19.036;2022-12-18T13:24:50;20.50;45.70
35325;DHT22;35135;47.510;19.036;2022-12-18T13:43:45;20.40;46.30
35325;DHT22;35135;47.510;19.036;2022-12-18T13:46:29;20.30;46.40
35325;DHT22;35135;47.510;19.036;2022-12-18T13:49:56;20.30;46.60
35325;DHT22;35135;47.510;19.036;2022-12-18T13:51:54;20.30;46.80
35325;DHT22;35135;47.510;19.036;2022-12-18T13:56:50;20.20;46.80
35325;DHT22;35135;47.510;19.036;2022-12-18T13:59:22;20.20;47.00
35325;DHT22;35135;47.510;19.036;2022-12-18T14:04:33;20.10;47.20
35325;DHT22;35135;47.510;19.036;2022-12-18T14:07:17;20.10;47.30
35325;DHT22;35135;47.510;19.036;2022-12-18T14:09:59;20.10;47.60
35325;DHT22;35135;47.510;19.036;2022-12-18T14:12:33;20.10;47.70
35325;DHT22;35135;47.510;19.036;2022-12-18T14:15:34;20.10;47.90
35325;DHT22;35135;47.510;19.036;2022-12-18T14:20:34;20.10;48.30
35325;DHT22;35135;47.510;19.036;2022-12-18T14:23:00;20.00;48.40
35325;DHT22;35135;47.510;19.036;2022-12-18T14:25:28;20.10;48.80
35325;DHT22;35135;47.510;19.036;2022-12-18T14:28:07;20.10;48.50
35325;DHT22;35135;47.510;19.036;2022-12-18T14:30:42;20.10;48.60
35325;DHT22;35135;47.510;19.036;2022-12-18T14:33:16;20.10;48.70
35325;DHT22;35135;47.510;19.036;2022-12-18T14:36:05;20.10;48.80
35325;DHT22;35135;47.510;19.036;2022-12-18T14:38:39;20.20;48.80
35325;DHT22;35135;47.510;19.036;2022-12-18T14:41:09;20.30;48.70
35325;DHT22;35135;47.510;19.036;2022-12-18T14:43:38;20.50;48.60
35325;DHT22;35135;47.510;19.036;2022-12-18T14:46:06;20.50;48.30
35325;DHT22;35135;47.510;19.036;2022-12-18T14:48:50;20.60;48.30
35325;DHT22;35135;47.510;19.036;2022-12-18T14:51:19;20.70;48.20
35325;DHT22;35135;47.510;19.036;2022-12-18T14:53:48;20.80;48.10
35325;DHT22;35135;47.510;19.036;2022-12-18T14:56:21;20.80;48.10
35325;DHT22;35135;47.510;19.036;2022-12-18T14:58:56;20.80;48.00
35325;DHT22;35135;47.510;19.036;2022-12-18T15:03:58;20.80;47.90
35325;DHT22;35135;47.510;19.036;2022-12-18T15:08:56;20.80;48.10
35325;DHT22;35135;47.510;19.036;2022-12-18T15:11:29;20.80;48.10
35325;DHT22;35135;47.510;19.036;2022-12-18T15:13:58;20.70;48.00
35325;DHT22;35135;47.510;19.036;2022-12-18T15:16:24;20.70;48.00
35325;DHT22;35135;47.510;19.036;2022-12-18T15:18:50;20.70;48.00
35325;DHT22;35135;47.510;19.036;2022-12-18T15:21:18;20.60;48.00
35325;DHT22;35135;47.510;19.036;2022-12-18T15:26:11;20.60;48.00
35325;DHT22;35135;47.510;19.036;2022-12-18T15:28:44;20.60;48.00
35325;DHT22;35135;47.510;19.036;2022-12-18T15:33:44;20.50;48.40
35325;DHT22;35135;47.510;19.036;2022-12-18T15:36:15;20.50;48.50
35325;DHT22;35135;47.510;19.036;2022-12-18T15:38:45;20.50;48.60
35325;DHT22;35135;47.510;19.036;2022-12-18T15:41:15;20.50;48.70
35325;DHT22;35135;47.510;19.036;2022-12-18T15:43:42;20.50;48.70
35325;DHT22;35135;47.510;19.036;2022-12-18T15:46:16;20.50;48.80
35325;DHT22;35135;47.510;19.036;2022-12-18T15:48:50;20.50;48.90
35325;DHT22;35135;47.510;19.036;2022-12-18T15:51:19;20.50;49.00
35325;DHT22;35135;47.510;19.036;2022-12-18T15:53:46;20.50;49.00
35325;DHT22;35135;47.510;19.036;2022-12-18T15:56:14;20.50;49.10
35325;DHT22;35135;47.510;19.036;2022-12-18T15:58:59;20.50;49.20
35325;DHT22;35135;47.510;19.036;2022-12-18T16:01:27;20.50;49.20
35325;DHT22;35135;47.510;19.036;2022-12-18T16:03:53;20.40;49.20
35325;DHT22;35135;47.510;19.036;2022-12-18T16:06:19;20.50;49.30
35325;DHT22;35135;47.510;19.036;2022-12-18T16:08:45;20.50;49.70
35325;DHT22;35135;47.510;19.036;2022-12-18T16:11:21;20.40;49.50
35325;DHT22;35135;47.510;19.036;2022-12-18T16:14:04;20.40;49.60
35325;DHT22;35135;47.510;19.036;2022-12-18T16:16:30;20.40;49.60
35325;DHT22;35135;47.510;19.036;2022-12-18T16:18:56;20.40;49.60
35325;DHT22;35135;47.510;19.036;2022-12-18T16:21:22;20.40;49.80
35325;DHT22;35135;47.510;19.036;2022-12-18T16:23:47;20.40;49.80
35325;DHT22;35135;47.510;19.036;2022-12-18T16:26:13;20.40;50.00
35325;DHT22;35135;47.510;19.036;2022-12-18T16:28:39;20.40;49.90
35325;DHT22;35135;47.510;19.036;2022-12-18T16:31:04;20.40;49.90
35325;DHT22;35135;47.510;19.036;2022-12-18T16:33:30;20.40;50.00
35325;DHT22;35135;47.510;19.036;2022-12-18T16:35:56;20.40;50.10
35325;DHT22;35135;47.510;19.036;2022-12-18T16:38:21;20.40;50.00
35325;DHT22;35135;47.510;19.036;2022-12-18T16:40:47;20.40;50.10
35325;DHT22;35135;47.510;19.036;2022-12-18T16:43:31;20.40;50.10
35325;DHT22;35135;47.510;19.036;2022-12-18T16:45:58;20.40;50.20
35325;DHT22;35135;47.510;19.036;2022-12-18T16:48:24;20.40;50.30
35325;DHT22;35135;47.510;19.036;2022-12-18T16:50:50;20.40;50.80
35325;DHT22;35135;47.510;19.036;2022-12-18T16:53:24;20.40;50.60
35325;DHT22;35135;47.510;19.036;2022-12-18T16:55:54;20.40;50.60
35325;DHT22;35135;47.510;19.036;2022-12-18T16:58:20;20.40;50.60
35325;DHT22;35135;47.510;19.036;2022-12-18T17:00:46;20.40;50.70
35325;DHT22;35135;47.510;19.036;2022-12-18T17:03:12;20.50;50.90
35325;DHT22;35135;47.510;19.036;2022-12-18T17:05:38;20.50;50.50
35325;DHT22;35135;47.510;19.036;2022-12-18T17:08:03;20.50;50.60
35325;DHT22;35135;47.510;19.036;2022-12-18T17:10:29;20.50;50.70
35325;DHT22;35135;47.510;19.036;2022-12-18T17:12:55;20.70;51.00
35325;DHT22;35135;47.510;19.036;2022-12-18T17:15:20;20.70;51.10
35325;DHT22;35135;47.510;19.036;2022-12-18T17:17:46;20.80;51.10
35325;DHT22;35135;47.510;19.036;2022-12-18T17:20:12;20.90;50.90
35325;DHT22;35135;47.510;19.036;2022-12-18T17:22:37;20.90;50.60
35325;DHT22;35135;47.510;19.036;2022-12-18T17:25:03;20.90;50.40
35325;DHT22;35135;47.510;19.036;2022-12-18T17:27:29;21.00;50.50
35325;DHT22;35135;47.510;19.036;2022-12-18T17:29:54;21.00;50.30
35325;DHT22;35135;47.510;19.036;2022-12-18T17:32:20;21.00;50.30
35325;DHT22;35135;47.510;19.036;2022-12-18T17:34:46;20.90;50.20